createdAt,value
2023-05-20T00:00:53.544Z,13.80
2023-05-20T00:03:39.853Z,13.70
2023-05-20T00:06:26.114Z,13.70
2023-05-20T00:09:12.591Z,13.70
2023-05-20T00:11:58.972Z,13.60
2023-05-20T00:14:45.329Z,13.60
2023-05-20T00:17:32.021Z,13.60
2023-05-20T00:20:18.190Z,13.60
2023-05-20T00:23:04.312Z,13.50
2023-05-20T00:25:50.795Z,13.50
2023-05-20T00:28:36.993Z,13.40
2023-05-20T00:31:22.938Z,13.40
2023-05-20T00:34:09.969Z,13.50
2023-05-20T00:36:56.149Z,13.50
2023-05-20T00:39:42.084Z,13.50
2023-05-20T00:42:29.227Z,13.50
2023-05-20T00:45:15.419Z,13.50
2023-05-20T00:48:04.119Z,13.40
2023-05-20T00:50:50.979Z,13.40
2023-05-20T00:53:37.236Z,13.40
2023-05-20T00:56:24.724Z,13.40
2023-05-20T00:59:11.391Z,13.50
2023-05-20T01:01:57.953Z,13.50
2023-05-20T01:04:47.189Z,13.50
2023-05-20T01:07:33.968Z,13.50
2023-05-20T01:10:20.134Z,13.50
2023-05-20T01:13:11.464Z,13.50
2023-05-20T01:15:58.575Z,13.50
2023-05-20T01:18:48.589Z,13.50
2023-05-20T01:21:36.466Z,13.50
2023-05-20T01:24:23.132Z,13.50
2023-05-20T01:27:13.612Z,13.50
2023-05-20T01:30:01.296Z,13.50
2023-05-20T01:32:55.003Z,13.50
2023-05-20T01:35:41.863Z,13.50
2023-05-20T01:38:29.274Z,13.50
2023-05-20T01:41:15.984Z,13.40
2023-05-20T01:44:03.304Z,13.40
2023-05-20T01:46:50.696Z,13.40
2023-05-20T01:49:37.064Z,13.50
2023-05-20T01:52:23.719Z,13.50
2023-05-20T01:55:10.073Z,13.50
2023-05-20T01:57:56.097Z,13.40
2023-05-20T02:00:42.280Z,13.40
2023-05-20T02:03:28.283Z,13.30
2023-05-20T02:06:14.242Z,13.30
2023-05-20T02:09:00.965Z,13.30
2023-05-20T02:11:47.132Z,13.30
2023-05-20T02:14:33.562Z,13.20
2023-05-20T02:17:19.568Z,13.20
2023-05-20T02:20:07.717Z,13.20
2023-05-20T02:22:54.581Z,13.20
2023-05-20T02:25:41.187Z,13.20
2023-05-20T02:28:29.901Z,13.20
2023-05-20T02:31:16.421Z,13.30
2023-05-20T02:34:02.244Z,13.30
2023-05-20T02:36:48.761Z,13.30
2023-05-20T02:39:35.017Z,13.40
2023-05-20T02:42:20.925Z,13.40
2023-05-20T02:45:08.530Z,13.30
2023-05-20T02:47:54.672Z,13.20
2023-05-20T02:50:41.275Z,13.20
2023-05-20T02:53:27.410Z,13.20
2023-05-20T02:56:13.300Z,13.20
2023-05-20T02:59:00.220Z,13.30
2023-05-20T03:01:46.838Z,13.20
2023-05-20T03:04:33.030Z,13.20
2023-05-20T03:07:21.552Z,13.20
2023-05-20T03:10:09.469Z,13.10
2023-05-20T03:12:58.761Z,13.10
2023-05-20T03:15:45.682Z,13.10
2023-05-20T03:18:32.108Z,13.10
2023-05-20T03:21:18.843Z,13.20
2023-05-20T03:24:05.209Z,13.10
2023-05-20T03:26:51.237Z,13.10
2023-05-20T03:29:37.782Z,13.20
2023-05-20T03:32:23.985Z,13.20
2023-05-20T03:35:10.543Z,13.20
2023-05-20T03:37:57.206Z,13.20
2023-05-20T03:40:44.158Z,13.20
2023-05-20T03:43:30.697Z,13.10
2023-05-20T03:46:18.213Z,13.10
2023-05-20T03:49:04.603Z,13.20
2023-05-20T03:51:50.870Z,13.20
2023-05-20T03:54:37.812Z,13.20
2023-05-20T03:57:26.210Z,13.20
2023-05-20T04:00:14.561Z,13.20
2023-05-20T04:03:04.383Z,13.10
2023-05-20T04:05:51.036Z,13.10
2023-05-20T04:08:40.412Z,13.10
2023-05-20T04:11:26.910Z,13.10
2023-05-20T04:14:12.938Z,13.10
2023-05-20T04:16:59.300Z,13.10
2023-05-20T04:19:46.201Z,13.10
2023-05-20T04:22:32.928Z,13.10
2023-05-20T04:25:19.166Z,13.10
2023-05-20T04:28:05.901Z,13.10
2023-05-20T04:31:00.304Z,13.20
2023-05-20T04:33:46.892Z,13.20
2023-05-20T04:36:34.652Z,13.10
2023-05-20T04:39:22.756Z,13.10
2023-05-20T04:42:11.787Z,13.10
2023-05-20T04:44:58.249Z,13.10
2023-05-20T04:47:46.041Z,13.10
2023-05-20T04:50:33.111Z,13.10
2023-05-20T04:53:19.406Z,13.10
2023-05-20T04:56:05.924Z,13.10
2023-05-20T04:58:52.742Z,13.10
2023-05-20T05:01:39.084Z,13.10
2023-05-20T05:04:25.578Z,13.10
2023-05-20T05:07:11.689Z,13.10
2023-05-20T05:09:57.588Z,13.10
2023-05-20T05:12:44.085Z,13.00
2023-05-20T05:15:30.389Z,13.10
2023-05-20T05:18:18.617Z,13.20
2023-05-20T05:21:06.325Z,13.20
2023-05-20T05:23:55.238Z,13.20
2023-05-20T05:26:43.168Z,13.10
2023-05-20T05:29:30.960Z,13.10
2023-05-20T05:32:17.275Z,13.10
2023-05-20T05:35:05.489Z,13.00
2023-05-20T05:37:53.292Z,13.10
2023-05-20T05:40:39.845Z,13.10
2023-05-20T05:43:26.627Z,13.20
2023-05-20T05:46:13.122Z,13.20
2023-05-20T05:48:59.043Z,13.10
2023-05-20T05:51:45.483Z,13.10
2023-05-20T05:54:31.602Z,13.20
2023-05-20T05:57:18.111Z,13.30
2023-05-20T06:00:04.781Z,13.40
2023-05-20T06:03:04.529Z,13.40
2023-05-20T06:05:54.474Z,13.50
2023-05-20T06:08:40.421Z,13.40
2023-05-20T06:11:28.007Z,13.40
2023-05-20T06:14:14.077Z,13.50
2023-05-20T06:17:00.385Z,13.60
2023-05-20T06:19:47.432Z,13.60
2023-05-20T06:22:33.635Z,13.70
2023-05-20T06:25:19.990Z,13.70
2023-05-20T06:28:06.575Z,13.70
2023-05-20T06:30:54.684Z,13.80
2023-05-20T06:33:41.189Z,13.80
2023-05-20T06:36:33.069Z,13.80
2023-05-20T06:39:19.811Z,13.80
2023-05-20T06:42:05.788Z,13.90
2023-05-20T06:44:55.170Z,14.10
2023-05-20T06:47:54.522Z,14.20
2023-05-20T06:50:40.782Z,14.30
2023-05-20T06:53:26.850Z,14.40
2023-05-20T06:56:12.822Z,14.30
2023-05-20T06:58:58.799Z,14.20
2023-05-20T07:01:45.802Z,14.20
2023-05-20T07:04:32.237Z,14.30
2023-05-20T07:07:18.217Z,14.30
2023-05-20T07:10:06.610Z,14.30
2023-05-20T07:12:53.212Z,14.20
2023-05-20T07:15:39.630Z,14.40
2023-05-20T07:18:25.881Z,14.50
2023-05-20T07:21:14.083Z,14.80
2023-05-20T07:24:22.920Z,15.00
2023-05-20T07:27:09.463Z,15.20
2023-05-20T07:29:55.731Z,15.50
2023-05-20T07:32:42.323Z,15.50
2023-05-20T07:35:28.708Z,15.50
2023-05-20T07:38:15.695Z,15.70
2023-05-20T07:41:04.350Z,15.70
2023-05-20T07:43:51.587Z,15.70
2023-05-20T07:46:41.875Z,15.70
2023-05-20T07:49:29.435Z,15.80
2023-05-20T07:52:15.853Z,16.00
2023-05-20T07:55:02.528Z,16.00
2023-05-20T07:57:49.150Z,16.20
2023-05-20T08:00:35.848Z,16.40
2023-05-20T08:03:26.940Z,16.60
2023-05-20T08:06:28.766Z,16.70
2023-05-20T08:09:16.159Z,16.70
2023-05-20T08:12:07.806Z,16.80
2023-05-20T08:14:54.602Z,16.90
2023-05-20T08:17:41.129Z,17.00
2023-05-20T08:20:29.584Z,17.30
2023-05-20T08:23:16.789Z,17.40
2023-05-20T08:26:03.730Z,17.70
2023-05-20T08:28:52.365Z,17.90
2023-05-20T08:31:38.959Z,18.20
2023-05-20T08:34:25.750Z,18.30
2023-05-20T08:37:11.910Z,18.20
2023-05-20T08:39:58.317Z,18.20
2023-05-20T08:42:45.045Z,18.40
2023-05-20T08:45:34.578Z,18.40
2023-05-20T08:48:26.735Z,18.50
2023-05-20T08:51:15.774Z,18.60
2023-05-20T08:54:02.531Z,18.90
2023-05-20T08:56:48.999Z,19.10
2023-05-20T08:59:36.193Z,19.30
2023-05-20T09:02:23.217Z,19.30
2023-05-20T09:05:11.845Z,19.20
2023-05-20T09:08:08.776Z,19.10
2023-05-20T09:10:55.123Z,19.20
2023-05-20T09:13:41.326Z,19.40
2023-05-20T09:16:28.798Z,19.60
2023-05-20T09:19:14.663Z,19.90
2023-05-20T09:22:03.837Z,20.00
2023-05-20T09:24:50.811Z,19.90
2023-05-20T09:27:37.195Z,20.00
2023-05-20T09:30:23.972Z,20.10
2023-05-20T09:33:11.581Z,20.20
2023-05-20T09:36:04.979Z,20.40
2023-05-20T09:38:53.643Z,20.50
2023-05-20T09:42:04.026Z,20.60
2023-05-20T09:44:52.182Z,20.70
2023-05-20T09:47:40.953Z,20.80
2023-05-20T09:50:28.854Z,21.00
2023-05-20T09:53:15.913Z,21.10
2023-05-20T09:56:02.266Z,21.20
2023-05-20T09:58:50.094Z,21.40
2023-05-20T10:01:36.177Z,21.40
2023-05-20T10:04:25.404Z,21.40
2023-05-20T10:07:41.261Z,21.50
2023-05-20T10:10:52.973Z,21.60
2023-05-20T10:13:52.057Z,21.90
2023-05-20T10:16:48.178Z,22.20
2023-05-20T10:19:35.619Z,22.20
2023-05-20T10:22:29.685Z,22.20
2023-05-20T10:25:28.679Z,22.00
2023-05-20T10:28:14.951Z,21.80
2023-05-20T10:31:01.661Z,21.60
2023-05-20T10:33:48.434Z,21.40
2023-05-20T10:36:34.940Z,21.30
2023-05-20T10:39:30.339Z,21.10
2023-05-20T10:42:16.720Z,21.10
2023-05-20T10:45:03.933Z,21.20
2023-05-20T10:47:58.266Z,21.40
2023-05-20T10:50:45.647Z,21.80
2023-05-20T10:53:46.672Z,22.40
2023-05-20T10:56:33.096Z,22.90
2023-05-20T10:59:21.622Z,23.10
2023-05-20T11:02:11.580Z,23.40
2023-05-20T11:04:58.645Z,23.80
2023-05-20T11:07:44.840Z,24.00
2023-05-20T11:10:31.794Z,24.20
2023-05-20T11:13:18.379Z,24.40
2023-05-20T11:16:05.806Z,24.40
2023-05-20T11:18:52.315Z,24.70
2023-05-20T11:21:44.493Z,24.90
2023-05-20T11:24:30.784Z,25.20
2023-05-20T11:27:16.767Z,25.50
2023-05-20T11:30:04.073Z,25.30
2023-05-20T11:33:01.607Z,25.30
2023-05-20T11:35:53.006Z,25.50
2023-05-20T11:38:41.965Z,26.10
2023-05-20T11:41:28.782Z,26.50
2023-05-20T11:44:14.793Z,26.20
2023-05-20T11:47:01.904Z,25.80
2023-05-20T11:49:49.581Z,26.00
2023-05-20T11:52:35.575Z,26.20
2023-05-20T11:55:21.912Z,26.50
2023-05-20T11:58:07.794Z,26.70
2023-05-20T12:01:01.881Z,26.90
2023-05-20T12:03:54.262Z,27.00
2023-05-20T12:06:40.771Z,27.00
2023-05-20T12:09:27.248Z,27.40
2023-05-20T12:12:14.156Z,27.80
2023-05-20T12:15:00.392Z,28.10
2023-05-20T12:17:52.286Z,27.80
2023-05-20T12:20:39.598Z,27.40
2023-05-20T12:23:26.464Z,27.20
2023-05-20T12:26:13.088Z,27.40
2023-05-20T12:28:59.181Z,27.40
2023-05-20T12:31:45.154Z,27.10
2023-05-20T12:34:32.090Z,26.80
2023-05-20T12:37:18.317Z,26.60
2023-05-20T12:40:08.377Z,26.70
2023-05-20T12:42:54.415Z,26.40
2023-05-20T12:45:40.511Z,26.50
2023-05-20T12:48:26.388Z,26.30
2023-05-20T12:51:12.656Z,26.20
2023-05-20T12:53:58.731Z,26.10
2023-05-20T12:56:47.499Z,26.20
2023-05-20T12:59:33.398Z,26.40
2023-05-20T13:02:19.729Z,26.80
2023-05-20T13:05:06.645Z,27.20
2023-05-20T13:07:52.839Z,27.20
2023-05-20T13:10:38.942Z,27.40
2023-05-20T13:13:24.789Z,27.60
2023-05-20T13:16:12.026Z,27.50
2023-05-20T13:18:58.231Z,27.40
2023-05-20T13:21:44.483Z,27.40
2023-05-20T13:24:30.930Z,27.50
2023-05-20T13:27:17.050Z,27.70
2023-05-20T13:30:04.150Z,27.90
2023-05-20T13:32:50.586Z,28.00
2023-05-20T13:35:37.119Z,27.70
2023-05-20T13:38:23.523Z,27.70
2023-05-20T13:41:09.507Z,27.80
2023-05-20T13:43:55.302Z,27.80
2023-05-20T13:46:41.369Z,27.70
2023-05-20T13:49:27.682Z,27.50
2023-05-20T13:52:13.893Z,27.30
2023-05-20T13:55:00.125Z,27.10
2023-05-20T13:57:46.603Z,26.80
2023-05-20T14:00:33.092Z,26.50
2023-05-20T14:03:19.983Z,26.20
2023-05-20T14:06:06.661Z,26.10
2023-05-20T14:08:54.754Z,26.10
2023-05-20T14:11:41.281Z,25.90
2023-05-20T14:14:27.673Z,25.60
2023-05-20T14:17:13.583Z,25.30
2023-05-20T14:20:00.637Z,25.10
2023-05-20T14:22:47.205Z,24.90
2023-05-20T14:25:33.080Z,24.80
2023-05-20T14:28:19.820Z,24.70
2023-05-20T14:31:08.951Z,24.50
2023-05-20T14:33:55.836Z,24.40
2023-05-20T14:36:41.903Z,24.20
2023-05-20T14:39:28.186Z,24.00
2023-05-20T14:42:14.296Z,24.00
2023-05-20T14:45:00.842Z,24.00
2023-05-20T14:47:47.056Z,24.00
2023-05-20T14:50:33.057Z,23.90
2023-05-20T14:53:19.702Z,23.80
2023-05-20T14:56:06.267Z,23.80
2023-05-20T14:58:54.008Z,23.80
2023-05-20T15:01:40.025Z,23.90
2023-05-20T15:04:27.187Z,23.80
2023-05-20T15:07:15.201Z,23.70
2023-05-20T15:10:01.158Z,23.60
2023-05-20T15:12:47.642Z,23.60
2023-05-20T15:15:34.272Z,23.60
2023-05-20T15:18:20.663Z,23.60
2023-05-20T15:21:06.836Z,23.60
2023-05-20T15:23:52.808Z,23.60
2023-05-20T15:26:40.551Z,23.60
2023-05-20T15:29:26.535Z,23.50
2023-05-20T15:32:12.405Z,23.50
2023-05-20T15:34:58.589Z,23.40
2023-05-20T15:37:44.554Z,23.40
2023-05-20T15:40:30.460Z,23.40
2023-05-20T15:43:17.560Z,23.40
2023-05-20T15:46:03.810Z,23.40
2023-05-20T15:48:51.401Z,23.30
2023-05-20T15:51:37.615Z,23.30
2023-05-20T15:54:23.380Z,23.30
2023-05-20T15:57:10.161Z,23.30
2023-05-20T15:59:57.292Z,23.30
2023-05-20T16:02:43.990Z,23.30
2023-05-20T16:05:30.580Z,23.30
2023-05-20T16:08:16.908Z,23.20
2023-05-20T16:11:03.381Z,23.10
2023-05-20T16:13:49.203Z,23.10
2023-05-20T16:16:36.365Z,23.10
2023-05-20T16:19:23.165Z,23.10
2023-05-20T16:22:09.525Z,23.20
2023-05-20T16:24:56.054Z,23.10
2023-05-20T16:27:42.239Z,22.90
2023-05-20T16:30:28.203Z,22.80
2023-05-20T16:33:14.650Z,22.80
2023-05-20T16:36:01.318Z,22.70
2023-05-20T16:38:47.753Z,22.60
2023-05-20T16:41:34.454Z,22.50
2023-05-20T16:44:20.664Z,22.40
2023-05-20T16:47:07.702Z,22.30
2023-05-20T16:49:53.966Z,22.30
2023-05-20T16:52:39.923Z,22.20
2023-05-20T16:55:26.075Z,22.10
2023-05-20T16:58:12.233Z,22.10
2023-05-20T17:00:58.296Z,22.10
2023-05-20T17:03:44.813Z,22.10
2023-05-20T17:06:34.126Z,22.10
2023-05-20T17:09:19.977Z,22.10
2023-05-20T17:12:06.643Z,22.00
2023-05-20T17:14:52.575Z,22.00
2023-05-20T17:17:39.068Z,21.90
2023-05-20T17:20:25.064Z,21.90
2023-05-20T17:23:11.034Z,21.90
2023-05-20T17:25:56.919Z,21.80
2023-05-20T17:28:43.043Z,21.80
2023-05-20T17:31:29.201Z,21.80
2023-05-20T17:34:15.530Z,21.70
2023-05-20T17:37:01.863Z,21.70
2023-05-20T17:39:48.137Z,21.60
2023-05-20T17:42:34.555Z,21.60
2023-05-20T17:45:20.986Z,21.50
2023-05-20T17:48:08.853Z,21.50
2023-05-20T17:50:58.403Z,21.50
2023-05-20T17:53:44.691Z,21.40
2023-05-20T17:56:30.629Z,21.40
2023-05-20T17:59:17.059Z,21.20
2023-05-20T18:02:03.297Z,21.10
2023-05-20T18:04:49.516Z,21.10
2023-05-20T18:07:37.365Z,21.00
2023-05-20T18:10:23.427Z,21.00
2023-05-20T18:13:09.373Z,20.80
2023-05-20T18:15:55.346Z,20.80
2023-05-20T18:18:41.818Z,20.70
2023-05-20T18:21:27.698Z,20.70
2023-05-20T18:24:16.477Z,20.50
2023-05-20T18:27:02.643Z,20.50
2023-05-20T18:29:49.983Z,20.40
2023-05-20T18:32:36.361Z,20.30
2023-05-20T18:35:22.782Z,20.30
2023-05-20T18:38:08.778Z,20.30
2023-05-20T18:40:54.921Z,20.20
2023-05-20T18:43:41.224Z,20.10
2023-05-20T18:46:27.415Z,20.10
2023-05-20T18:49:13.719Z,20.00
2023-05-20T18:51:59.804Z,19.90
2023-05-20T18:54:46.083Z,19.80
2023-05-20T18:57:31.996Z,19.80
2023-05-20T19:00:18.283Z,19.80
2023-05-20T19:03:04.461Z,19.80
2023-05-20T19:05:50.943Z,19.70
2023-05-20T19:08:37.192Z,19.70
2023-05-20T19:11:23.137Z,19.60
2023-05-20T19:14:09.056Z,19.60
2023-05-20T19:16:55.119Z,19.50
2023-05-20T19:19:41.898Z,19.50
2023-05-20T19:22:27.683Z,19.40
2023-05-20T19:25:13.537Z,19.40
2023-05-20T19:28:00.162Z,19.30
2023-05-20T19:30:46.130Z,19.30
2023-05-20T19:33:32.265Z,19.30
2023-05-20T19:36:18.553Z,19.20
2023-05-20T19:39:04.897Z,19.20
2023-05-20T19:41:52.944Z,19.10
2023-05-20T19:44:39.306Z,19.10
2023-05-20T19:47:25.258Z,19.00
2023-05-20T19:50:11.781Z,19.00
2023-05-20T19:52:57.828Z,19.00
2023-05-20T19:55:43.801Z,18.90
2023-05-20T19:58:29.891Z,18.90
2023-05-20T20:01:17.054Z,18.90
2023-05-20T20:04:03.132Z,18.80
2023-05-20T20:06:49.592Z,18.70
2023-05-20T20:09:36.083Z,18.70
2023-05-20T20:12:22.620Z,18.70
2023-05-20T20:15:09.593Z,18.70
2023-05-20T20:17:55.912Z,18.60
2023-05-20T20:20:43.306Z,18.60
2023-05-20T20:23:29.807Z,18.60
2023-05-20T20:26:15.618Z,18.50
2023-05-20T20:29:02.044Z,18.50
2023-05-20T20:31:48.446Z,18.50
2023-05-20T20:34:34.416Z,18.50
2023-05-20T20:37:23.005Z,18.50
2023-05-20T20:40:13.269Z,18.50
2023-05-20T20:43:00.876Z,18.40
2023-05-20T20:45:47.066Z,18.30
2023-05-20T20:48:34.531Z,18.30
2023-05-20T20:51:20.817Z,18.30
2023-05-20T20:54:07.947Z,18.30
2023-05-20T20:56:56.962Z,18.20
2023-05-20T20:59:47.543Z,18.20
2023-05-20T21:02:33.810Z,18.10
2023-05-20T21:05:21.457Z,18.10
2023-05-20T21:08:08.538Z,18.00
2023-05-20T21:10:59.053Z,18.00
2023-05-20T21:13:45.168Z,18.00
2023-05-20T21:16:31.702Z,17.90
2023-05-20T21:19:18.034Z,17.90
2023-05-20T21:22:04.324Z,17.90
2023-05-20T21:24:50.167Z,17.80
2023-05-20T21:27:36.487Z,17.80
2023-05-20T21:30:24.075Z,17.80
2023-05-20T21:33:10.029Z,17.80
2023-05-20T21:35:56.393Z,17.70
2023-05-20T21:38:42.621Z,17.70
2023-05-20T21:41:28.538Z,17.70
2023-05-20T21:44:14.558Z,17.70
2023-05-20T21:47:00.495Z,17.70
2023-05-20T21:49:47.992Z,17.60
2023-05-20T21:52:34.519Z,17.60
2023-05-20T21:55:23.500Z,17.60
2023-05-20T21:58:09.536Z,17.60
2023-05-20T22:00:55.476Z,17.60
2023-05-20T22:03:46.705Z,17.60
2023-05-20T22:06:36.208Z,17.60
2023-05-20T22:09:22.700Z,17.60
2023-05-20T22:12:11.097Z,17.50
2023-05-20T22:14:57.441Z,17.50
2023-05-20T22:17:44.766Z,17.50
2023-05-20T22:20:33.739Z,17.40
2023-05-20T22:23:19.760Z,17.40
2023-05-20T22:26:06.358Z,17.40
2023-05-20T22:28:52.924Z,17.30
2023-05-20T22:31:39.147Z,17.30
2023-05-20T22:34:25.664Z,17.30
2023-05-20T22:37:12.080Z,17.20
2023-05-20T22:39:58.298Z,17.20
2023-05-20T22:42:44.541Z,17.20
2023-05-20T22:45:30.620Z,17.20
2023-05-20T22:48:16.623Z,17.30
2023-05-20T22:51:03.825Z,17.20
2023-05-20T22:53:49.803Z,17.20
2023-05-20T22:56:35.958Z,17.20
2023-05-20T22:59:22.312Z,17.20
2023-05-20T23:02:08.200Z,17.20
2023-05-20T23:04:54.782Z,17.20
2023-05-20T23:07:40.881Z,17.20
2023-05-20T23:10:27.019Z,17.20
2023-05-20T23:13:13.041Z,17.20
2023-05-20T23:15:58.943Z,17.10
2023-05-20T23:18:45.012Z,17.10
2023-05-20T23:21:31.733Z,17.00
2023-05-20T23:24:18.023Z,17.10
2023-05-20T23:27:04.528Z,17.00
2023-05-20T23:29:50.336Z,16.90
2023-05-20T23:32:36.933Z,16.90
2023-05-20T23:35:23.353Z,16.90
2023-05-20T23:38:09.118Z,16.80
2023-05-20T23:40:54.995Z,16.70
2023-05-20T23:43:40.993Z,16.70
2023-05-20T23:46:27.203Z,16.60
2023-05-20T23:49:13.114Z,16.60
2023-05-20T23:51:58.980Z,16.60
2023-05-20T23:54:45.070Z,16.50
2023-05-20T23:57:31.052Z,16.50
